Time;durP1;ratioP1;P1;durP2;ratioP2;P2;SDS_P1;SDS_P2;PMS_P1;PMS_P2;Temp;Humidity;BMP_temperature;BMP_pressure;BME280_temperature;BME280_humidity;BME280_pressure;Samples;Min_cycle;Max_cycle;Signal;HPM_P1;HPM_P2
2022/08/07 00:00:59;;;;;;;2.35;2.15;;;29.50;1.00;;;;;;5113538;28;20045;-45
2022/08/07 00:03:27;;;;;;;4.35;1.85;;;29.40;1.00;;;;;;5112874;28;20403;-44
2022/08/07 00:05:53;;;;;;;3.10;2.55;;;29.40;1.00;;;;;;5114454;28;20023;-44
2022/08/07 00:08:21;;;;;;;3.10;2.30;;;29.50;1.00;;;;;;5113855;28;20481;-44
2022/08/07 00:10:50;;;;;;;3.63;2.40;;;29.50;1.00;;;;;;5114154;28;20057;-45
2022/08/07 00:13:17;;;;;;;2.47;2.25;;;29.50;1.00;;;;;;5095102;28;20377;-45
2022/08/07 00:15:43;;;;;;;3.15;2.28;;;29.50;1.00;;;;;;5113385;28;22512;-45
2022/08/07 00:18:09;;;;;;;3.60;2.58;;;29.50;1.00;;;;;;5113190;28;20485;-45
2022/08/07 00:20:36;;;;;;;3.17;2.30;;;29.40;1.00;;;;;;5113957;28;20035;-45
2022/08/07 00:23:05;;;;;;;2.80;2.60;;;29.40;1.00;;;;;;5082690;28;20427;-45
2022/08/07 00:25:31;;;;;;;2.92;2.55;;;29.40;1.00;;;;;;5114315;28;20444;-45
2022/08/07 00:27:56;;;;;;;4.38;3.00;;;29.40;1.00;;;;;;5113510;28;20098;-45
2022/08/07 00:30:22;;;;;;;2.90;2.65;;;29.30;1.00;;;;;;5095870;28;20023;-45
2022/08/07 00:32:49;;;;;;;5.22;3.17;;;29.20;1.00;;;;;;5094540;28;20032;-46
2022/08/07 00:35:18;;;;;;;3.05;2.75;;;29.10;1.00;;;;;;5113877;28;20027;-44
2022/08/07 00:37:44;;;;;;;4.97;2.90;;;29.10;1.00;;;;;;5113867;28;20062;-47
2022/08/07 00:40:11;;;;;;;3.20;2.97;;;29.10;1.00;;;;;;5113102;28;20035;-47
2022/08/07 00:42:37;;;;;;;3.53;3.15;;;29.00;1.00;;;;;;5113311;28;20063;-45
2022/08/07 00:45:04;;;;;;;3.42;2.80;;;29.10;1.00;;;;;;5112504;28;20024;-46
2022/08/07 00:47:31;;;;;;;4.47;3.13;;;29.00;1.00;;;;;;5113822;28;20015;-44
2022/08/07 00:49:57;;;;;;;4.90;3.17;;;29.10;1.00;;;;;;5109827;28;20088;-45
2022/08/07 00:52:23;;;;;;;5.63;4.32;;;29.00;1.00;;;;;;5113655;28;20099;-45
2022/08/07 00:54:49;;;;;;;2.90;2.70;;;28.90;1.00;;;;;;5113012;28;20023;-44
2022/08/07 00:57:16;;;;;;;2.65;2.45;;;28.70;1.00;;;;;;5113649;28;20384;-45
2022/08/07 00:59:42;;;;;;;3.53;3.15;;;28.80;1.00;;;;;;5112773;28;20034;-48
2022/08/07 01:02:08;;;;;;;4.60;2.50;;;28.70;1.00;;;;;;5112275;28;20023;-49
2022/08/07 01:04:34;;;;;;;2.70;2.50;;;28.80;1.00;;;;;;5112533;28;20079;-45
2022/08/07 01:07:00;;;;;;;2.63;2.42;;;28.70;1.00;;;;;;5113362;28;20438;-51
2022/08/07 01:09:27;;;;;;;3.10;2.83;;;28.50;1.00;;;;;;5109376;28;20032;-48
2022/08/07 01:11:53;;;;;;;2.95;2.55;;;28.70;1.00;;;;;;5097644;28;20386;-45
2022/08/07 01:14:20;;;;;;;3.75;2.83;;;28.60;1.00;;;;;;5096598;28;20024;-50
2022/08/07 01:16:47;;;;;;;4.15;2.47;;;28.60;1.00;;;;;;5101564;28;20076;-45
2022/08/07 01:19:14;;;;;;;4.25;2.67;;;28.50;1.00;;;;;;5112170;28;20138;-45
2022/08/07 01:21:40;;;;;;;3.03;2.60;;;28.60;1.00;;;;;;5094506;28;20533;-44
2022/08/07 01:24:07;;;;;;;3.20;2.75;;;28.60;1.00;;;;;;5108202;28;20149;-44
2022/08/07 01:26:33;;;;;;;4.20;3.00;;;28.50;1.00;;;;;;5112959;28;20028;-44
2022/08/07 01:29:00;;;;;;;2.88;2.67;;;28.50;1.00;;;;;;5111333;28;20094;-44
2022/08/07 01:31:30;;;;;;;2.72;2.63;;;28.40;1.00;;;;;;5080885;28;20066;-44
2022/08/07 01:33:59;;;;;;;2.85;2.60;;;28.50;1.00;;;;;;5110708;28;20509;-45
2022/08/07 01:36:27;;;;;;;3.15;2.78;;;28.20;1.00;;;;;;5112087;28;20397;-45
2022/08/07 01:38:53;;;;;;;2.80;2.60;;;28.30;1.00;;;;;;5110916;28;20023;-44
2022/08/07 01:41:19;;;;;;;3.42;3.05;;;28.40;1.00;;;;;;5112261;28;20041;-44
2022/08/07 01:43:46;;;;;;;2.75;2.55;;;28.30;1.00;;;;;;5110922;28;20036;-45
2022/08/07 01:46:13;;;;;;;2.80;2.70;;;28.40;1.00;;;;;;5111770;28;20027;-45
2022/08/07 01:48:41;;;;;;;2.50;2.30;;;28.40;1.00;;;;;;5111397;28;20043;-46
2022/08/07 01:51:10;;;;;;;3.00;2.75;;;28.30;1.00;;;;;;5112359;28;20058;-45
2022/08/07 01:53:38;;;;;;;2.78;2.58;;;28.30;1.00;;;;;;5111642;28;20023;-44
2022/08/07 01:56:19;;;;;;;3.17;2.90;;;28.20;1.00;;;;;;5112360;28;20028;-45
2022/08/07 01:58:56;;;;;;;2.40;2.30;;;28.20;1.00;;;;;;5092575;28;20035;-47
2022/08/07 02:01:30;;;;;;;3.45;2.80;;;28.30;1.00;;;;;;5109007;28;20096;-45
2022/08/07 02:04:06;;;;;;;2.67;2.58;;;28.30;1.00;;;;;;5111727;28;20093;-44
2022/08/07 02:06:34;;;;;;;2.95;2.72;;;28.30;1.00;;;;;;5093785;28;20096;-45
2022/08/07 02:09:03;;;;;;;3.50;2.58;;;28.30;1.00;;;;;;5093454;28;20396;-49
2022/08/07 02:11:32;;;;;;;2.60;2.40;;;28.30;1.00;;;;;;5112181;28;20031;-44
2022/08/07 02:13:59;;;;;;;2.75;2.50;;;28.40;1.00;;;;;;5110822;28;20028;-46
2022/08/07 02:16:26;;;;;;;2.70;2.50;;;28.40;1.00;;;;;;5112257;28;20440;-44
2022/08/07 02:18:53;;;;;;;2.25;2.10;;;28.40;1.00;;;;;;5111288;28;20046;-47
2022/08/07 02:21:19;;;;;;;3.47;2.45;;;28.20;1.00;;;;;;5112169;28;20027;-45
2022/08/07 02:23:46;;;;;;;2.55;2.40;;;28.30;1.00;;;;;;5092548;28;20480;-45
2022/08/07 02:26:14;;;;;;;2.45;2.25;;;28.30;1.00;;;;;;5111095;28;20062;-47
2022/08/07 02:28:39;;;;;;;2.95;2.50;;;28.30;1.00;;;;;;5097105;28;20038;-47
2022/08/07 02:31:06;;;;;;;2.40;2.20;;;28.30;1.00;;;;;;5097597;28;20028;-48
2022/08/07 02:33:35;;;;;;;2.75;2.17;;;28.40;1.00;;;;;;5111452;28;20023;-49
2022/08/07 02:36:02;;;;;;;1.95;1.80;;;28.40;1.00;;;;;;5105238;28;20031;-44
2022/08/07 02:38:34;;;;;;;2.33;2.10;;;28.40;1.00;;;;;;5112091;28;20030;-46
2022/08/07 02:41:00;;;;;;;2.05;1.95;;;28.30;1.00;;;;;;5111054;28;20042;-45
2022/08/07 02:43:26;;;;;;;2.20;2.10;;;28.30;1.00;;;;;;5111772;28;20036;-45
2022/08/07 02:45:53;;;;;;;2.35;2.00;;;28.30;1.00;;;;;;5110897;28;20032;-46
2022/08/07 02:48:19;;;;;;;2.13;2.03;;;28.30;1.00;;;;;;5111824;28;20032;-45
2022/08/07 02:50:49;;;;;;;1.80;1.50;;;28.20;1.00;;;;;;5111092;28;20467;-45
2022/08/07 02:53:25;;;;;;;1.80;1.70;;;28.30;1.00;;;;;;5112159;28;20016;-45
2022/08/07 02:55:54;;;;;;;2.10;1.83;;;28.30;1.00;;;;;;5110476;28;20026;-45
2022/08/07 02:58:21;;;;;;;1.85;1.73;;;28.20;1.00;;;;;;5111709;28;20035;-45
2022/08/07 03:00:51;;;;;;;1.92;1.73;;;28.20;1.00;;;;;;5110749;28;20038;-47
2022/08/07 03:03:18;;;;;;;2.15;1.40;;;28.10;1.00;;;;;;5098073;28;20016;-46
2022/08/07 03:05:45;;;;;;;1.48;1.48;;;28.00;1.00;;;;;;5110826;28;20042;-45
2022/08/07 03:08:11;;;;;;;1.85;1.63;;;28.00;1.00;;;;;;5093280;28;20373;-48
2022/08/07 03:10:38;;;;;;;1.63;1.50;;;28.10;1.00;;;;;;5110124;28;20488;-45
2022/08/07 03:13:05;;;;;;;1.90;1.35;;;28.10;1.00;;;;;;5111469;28;20023;-46
2022/08/07 03:15:31;;;;;;;2.05;1.95;;;28.10;1.00;;;;;;5110774;28;20019;-45
2022/08/07 03:17:57;;;;;;;1.48;1.40;;;28.20;1.00;;;;;;5111480;28;20035;-45
2022/08/07 03:20:23;;;;;;;1.60;1.52;;;28.20;1.00;;;;;;5110460;28;20046;-45
2022/08/07 03:22:51;;;;;;;1.52;1.42;;;28.30;1.00;;;;;;5111780;28;20112;-47
2022/08/07 03:25:17;;;;;;;1.77;1.67;;;28.10;1.00;;;;;;5109972;28;20031;-45
2022/08/07 03:27:44;;;;;;;1.50;1.45;;;28.20;1.00;;;;;;5115482;28;20012;-45
2022/08/07 03:30:11;;;;;;;4.15;1.58;;;28.20;1.00;;;;;;5114376;28;20434;-45
2022/08/07 03:32:39;;;;;;;2.28;2.00;;;28.20;1.00;;;;;;5115241;28;20020;-45
2022/08/07 03:35:10;;;;;;;2.28;1.90;;;28.30;1.00;;;;;;5096344;28;20099;-49
2022/08/07 03:37:37;;;;;;;2.22;1.98;;;28.20;1.00;;;;;;5115291;28;20115;-45
2022/08/07 03:40:04;;;;;;;1.40;1.40;;;28.20;1.00;;;;;;5114213;28;20119;-47
2022/08/07 03:42:33;;;;;;;1.80;1.70;;;28.00;1.00;;;;;;5096372;28;20427;-45
2022/08/07 03:44:59;;;;;;;1.88;1.50;;;28.10;1.00;;;;;;5113858;28;20027;-45
2022/08/07 03:47:29;;;;;;;2.00;1.83;;;28.10;1.00;;;;;;5115267;28;20015;-43
2022/08/07 03:49:56;;;;;;;1.88;1.77;;;28.00;1.00;;;;;;5096159;28;20032;-47
2022/08/07 03:52:25;;;;;;;2.05;1.83;;;28.00;1.00;;;;;;5114950;28;20461;-44
2022/08/07 03:54:51;;;;;;;1.88;1.77;;;28.00;1.00;;;;;;5112928;28;20055;-49
2022/08/07 03:57:18;;;;;;;2.30;2.20;;;28.00;1.00;;;;;;5110908;28;20070;-45
2022/08/07 03:59:44;;;;;;;2.65;2.50;;;28.00;1.00;;;;;;5103604;28;20101;-46
2022/08/07 04:02:10;;;;;;;2.30;2.20;;;28.00;1.00;;;;;;5113735;28;20031;-45
2022/08/07 04:04:36;;;;;;;3.22;2.35;;;27.90;1.00;;;;;;5113887;28;20038;-45
2022/08/07 04:07:03;;;;;;;3.13;2.22;;;27.80;1.00;;;;;;5114800;28;20462;-48
2022/08/07 04:09:31;;;;;;;4.03;2.88;;;27.90;1.00;;;;;;5113893;28;20358;-45
2022/08/07 04:11:56;;;;;;;2.72;2.53;;;27.90;1.00;;;;;;5114332;28;20024;-49
2022/08/07 04:14:24;;;;;;;2.63;2.42;;;27.80;1.00;;;;;;5113124;28;20171;-45
2022/08/07 04:16:50;;;;;;;3.47;2.80;;;27.70;1.00;;;;;;5114657;28;20036;-46
2022/08/07 04:19:15;;;;;;;2.88;2.67;;;27.80;1.00;;;;;;5094585;28;20027;-49
2022/08/07 04:21:41;;;;;;;2.80;2.53;;;27.80;1.00;;;;;;5112755;28;20035;-52
2022/08/07 04:24:09;;;;;;;3.10;2.80;;;27.80;1.00;;;;;;5104777;28;20016;-47
2022/08/07 04:26:38;;;;;;;2.92;2.63;;;27.80;1.00;;;;;;5086079;28;20419;-47
2022/08/07 04:29:07;;;;;;;3.00;2.78;;;27.80;1.00;;;;;;5098765;28;20023;-45
2022/08/07 04:31:32;;;;;;;3.10;2.47;;;27.80;1.00;;;;;;5106457;28;20020;-46
2022/08/07 04:33:59;;;;;;;3.35;3.15;;;27.70;1.00;;;;;;5107019;28;20080;-47
2022/08/07 04:36:25;;;;;;;3.50;2.80;;;27.80;1.00;;;;;;5100323;28;20032;-45
2022/08/07 04:38:50;;;;;;;3.13;2.45;;;27.80;1.00;;;;;;5112163;28;20385;-45
2022/08/07 04:41:16;;;;;;;2.65;2.45;;;27.80;1.00;;;;;;5113099;28;20065;-45
2022/08/07 04:43:43;;;;;;;3.33;2.83;;;27.70;1.00;;;;;;5113620;28;20055;-45
2022/08/07 04:46:35;;;;;;;2.88;2.67;;;27.80;1.00;;;;;;5112203;28;20026;-44
2022/08/07 04:49:20;;;;;;;2.60;2.50;;;27.80;1.00;;;;;;5113638;28;20317;-45
2022/08/07 04:52:04;;;;;;;2.72;2.53;;;27.80;1.00;;;;;;5112482;28;20031;-44
2022/08/07 04:54:36;;;;;;;;;;;27.70;1.00;;;;;;5113204;28;20053;-44
2022/08/07 04:57:33;;;;;;;2.58;2.38;;;27.70;1.00;;;;;;5113438;28;19903;-44
2022/08/07 05:00:18;;;;;;;3.00;2.45;;;27.70;1.00;;;;;;5112822;28;20035;-44
2022/08/07 05:03:26;;;;;;;2.55;2.38;;;27.80;1.00;;;;;;5113428;28;20076;-46
2022/08/07 05:06:00;;;;;;;2.45;2.35;;;27.80;1.00;;;;;;5007921;28;20034;-45
2022/08/07 05:08:46;;;;;;;2.58;2.38;;;27.80;1.00;;;;;;5091527;28;20157;-44
2022/08/07 05:11:16;;;;;;;2.85;2.63;;;27.80;1.00;;;;;;5111437;28;20055;-45
2022/08/07 05:14:01;;;;;;;3.13;2.67;;;27.80;1.00;;;;;;5111885;28;20043;-45
2022/08/07 05:16:30;;;;;;;3.03;2.58;;;27.80;1.00;;;;;;5111890;28;20024;-47
2022/08/07 05:19:00;;;;;;;2.58;2.38;;;27.70;1.00;;;;;;5113124;28;20038;-45
2022/08/07 05:21:29;;;;;;;2.47;2.35;;;27.70;1.00;;;;;;5111258;28;20024;-47
2022/08/07 05:24:05;;;;;;;2.30;2.10;;;27.60;1.00;;;;;;5112151;28;20103;-45
2022/08/07 05:26:32;;;;;;;3.08;2.80;;;27.70;1.00;;;;;;5112113;28;20026;-46
2022/08/07 05:29:01;;;;;;;2.67;2.05;;;27.80;1.00;;;;;;5113333;28;20035;-45
2022/08/07 05:31:32;;;;;;;2.70;1.80;;;27.80;1.00;;;;;;5112152;28;20188;-45
2022/08/07 05:33:59;;;;;;;2.05;1.95;;;27.90;1.00;;;;;;5112942;28;20039;-45
2022/08/07 05:36:26;;;;;;;2.20;2.10;;;27.90;1.00;;;;;;5093675;28;20100;-44
2022/08/07 05:38:53;;;;;;;2.10;1.98;;;27.90;1.00;;;;;;5112877;28;20038;-45
2022/08/07 05:41:20;;;;;;;3.05;2.50;;;28.00;1.00;;;;;;5111749;28;20485;-45
2022/08/07 05:43:52;;;;;;;3.15;2.72;;;27.90;1.00;;;;;;5094343;28;20079;-46
2022/08/07 05:46:22;;;;;;;4.30;2.20;;;27.90;1.00;;;;;;5111848;28;20028;-45
2022/08/07 05:48:49;;;;;;;2.10;1.90;;;28.00;1.00;;;;;;5111641;28;20012;-44
2022/08/07 05:51:16;;;;;;;2.92;2.28;;;28.10;1.00;;;;;;5110759;28;20036;-45
2022/08/07 05:53:42;;;;;;;2.33;1.90;;;28.00;1.00;;;;;;5112386;28;20043;-46
2022/08/07 05:56:10;;;;;;;2.15;1.95;;;28.10;1.00;;;;;;5111925;28;20432;-45
2022/08/07 05:58:37;;;;;;;2.33;2.03;;;28.10;1.00;;;;;;5112390;28;20024;-44
2022/08/07 06:01:06;;;;;;;3.13;1.40;;;28.10;1.00;;;;;;5111724;28;20035;-45
2022/08/07 06:03:32;;;;;;;2.17;1.60;;;28.00;1.00;;;;;;5112447;28;20093;-44
2022/08/07 06:05:58;;;;;;;2.15;1.70;;;28.10;1.00;;;;;;5111474;28;20050;-44
2022/08/07 06:08:25;;;;;;;2.85;1.70;;;28.10;1.00;;;;;;5112200;28;20032;-45
2022/08/07 06:10:51;;;;;;;2.40;1.63;;;28.00;1.00;;;;;;5109903;28;20023;-46
2022/08/07 06:13:17;;;;;;;1.45;1.35;;;28.00;1.00;;;;;;5112390;28;20526;-48
2022/08/07 06:15:44;;;;;;;2.72;1.90;;;28.20;1.00;;;;;;5111186;28;20051;-45
2022/08/07 06:18:12;;;;;;;3.90;1.83;;;28.20;1.00;;;;;;5112382;28;20040;-45
2022/08/07 06:20:39;;;;;;;1.70;1.60;;;28.20;1.00;;;;;;5110938;28;20038;-48
2022/08/07 06:23:07;;;;;;;1.77;1.67;;;28.10;1.00;;;;;;5112136;28;20334;-45
2022/08/07 06:25:34;;;;;;;2.35;1.80;;;28.20;1.00;;;;;;5111171;28;20019;-47
2022/08/07 06:28:07;;;;;;;2.47;1.80;;;28.20;1.00;;;;;;5112269;28;20385;-45
2022/08/07 06:30:34;;;;;;;1.65;1.60;;;28.20;1.00;;;;;;5111435;28;20020;-45
2022/08/07 06:33:00;;;;;;;1.77;1.67;;;28.20;1.00;;;;;;5111981;28;20032;-46
2022/08/07 06:35:26;;;;;;;1.73;1.60;;;28.10;1.00;;;;;;5110711;28;20369;-46
2022/08/07 06:37:52;;;;;;;3.20;1.80;;;28.10;1.00;;;;;;5111935;28;20035;-46
2022/08/07 06:40:18;;;;;;;1.95;1.75;;;28.30;1.00;;;;;;5110985;28;20059;-45
2022/08/07 06:42:47;;;;;;;2.13;1.95;;;28.40;1.00;;;;;;5111831;28;20039;-45
2022/08/07 06:45:15;;;;;;;2.28;2.08;;;28.40;1.00;;;;;;5110974;28;20034;-45
2022/08/07 06:47:41;;;;;;;2.47;2.28;;;28.40;1.00;;;;;;5111666;28;20410;-46
2022/08/07 06:50:08;;;;;;;3.13;2.25;;;28.50;1.00;;;;;;5110684;28;20030;-48
2022/08/07 06:52:47;;;;;;;3.17;2.30;;;28.50;1.00;;;;;;5111761;28;20026;-45
2022/08/07 06:55:23;;;;;;;3.58;2.42;;;28.60;1.00;;;;;;5110927;28;20076;-47
2022/08/07 06:57:50;;;;;;;3.40;2.35;;;28.60;1.00;;;;;;5098386;28;20023;-46
2022/08/07 07:00:18;;;;;;;2.58;2.40;;;28.50;1.00;;;;;;5112428;28;20027;-45
2022/08/07 07:02:44;;;;;;;2.22;2.05;;;28.60;1.00;;;;;;5115630;28;20458;-45
2022/08/07 07:05:11;;;;;;;2.42;2.05;;;28.60;1.00;;;;;;5115224;28;20039;-45
2022/08/07 07:07:36;;;;;;;2.92;2.15;;;28.60;1.00;;;;;;5115892;28;20342;-45
2022/08/07 07:10:03;;;;;;;3.15;1.92;;;28.70;1.00;;;;;;5114840;28;20037;-45
2022/08/07 07:12:38;;;;;;;3.13;1.85;;;28.70;1.00;;;;;;5115479;28;20036;-45
2022/08/07 07:15:09;;;;;;;2.25;1.85;;;28.80;1.00;;;;;;5114668;28;20028;-46
2022/08/07 07:17:53;;;;;;;2.83;2.50;;;28.80;1.00;;;;;;5115398;28;20026;-46
2022/08/07 07:20:25;;;;;;;;;;;28.80;1.00;;;;;;5104863;28;20489;-45
2022/08/07 07:22:52;;;;;;;2.30;2.17;;;28.80;1.00;;;;;;5115352;28;19907;-45
2022/08/07 07:25:19;;;;;;;2.10;2.00;;;28.90;1.00;;;;;;5114358;28;20020;-45
2022/08/07 07:28:01;;;;;;;2.30;2.00;;;28.80;1.00;;;;;;5115279;28;20024;-46
2022/08/07 07:30:32;;;;;;;2.80;2.10;;;28.90;1.00;;;;;;5114662;28;20027;-45
2022/08/07 07:33:01;;;;;;;3.35;2.25;;;28.90;1.00;;;;;;5115583;28;20118;-46
2022/08/07 07:35:28;;;;;;;2.95;2.22;;;28.70;1.00;;;;;;5113468;28;20072;-45
2022/08/07 07:37:56;;;;;;;2.38;2.25;;;28.90;1.00;;;;;;5110874;28;20421;-47
2022/08/07 07:40:22;;;;;;;2.53;2.33;;;28.80;1.00;;;;;;5114343;28;20379;-45
2022/08/07 07:42:53;;;;;;;2.63;2.42;;;28.90;1.00;;;;;;5114808;28;20043;-45
2022/08/07 07:45:22;;;;;;;2.38;2.05;;;29.00;1.00;;;;;;5113038;28;20369;-45
2022/08/07 07:47:51;;;;;;;3.03;1.98;;;29.00;1.00;;;;;;5113434;28;20374;-45
2022/08/07 07:50:19;;;;;;;2.60;2.40;;;29.00;1.00;;;;;;5114061;28;20058;-45
2022/08/07 07:52:45;;;;;;;2.55;2.35;;;29.00;1.00;;;;;;5115027;28;20019;-45
2022/08/07 07:55:11;;;;;;;3.00;2.45;;;28.90;1.00;;;;;;5113793;28;20106;-45
2022/08/07 07:57:39;;;;;;;2.85;2.53;;;29.00;1.00;;;;;;5114637;28;20020;-45
2022/08/07 08:00:06;;;;;;;2.67;2.47;;;29.00;1.00;;;;;;5114135;28;20063;-44
2022/08/07 08:02:33;;;;;;;2.67;2.30;;;29.10;1.00;;;;;;5114563;28;20470;-44
2022/08/07 08:05:02;;;;;;;2.70;2.03;;;29.10;1.00;;;;;;5113911;28;20031;-44
2022/08/07 08:07:29;;;;;;;2.40;2.20;;;29.20;1.00;;;;;;5114248;28;20035;-46
2022/08/07 08:09:56;;;;;;;2.90;2.70;;;29.20;1.00;;;;;;5114554;28;20076;-45
2022/08/07 08:12:22;;;;;;;3.00;2.65;;;29.20;1.00;;;;;;5112462;28;20023;-46
2022/08/07 08:14:48;;;;;;;4.70;2.85;;;29.10;1.00;;;;;;5114369;28;20030;-46
2022/08/07 08:17:15;;;;;;;3.22;3.03;;;29.00;1.00;;;;;;5112823;28;20023;-45
2022/08/07 08:19:41;;;;;;;2.88;2.72;;;29.10;1.00;;;;;;5114259;28;20108;-45
2022/08/07 08:27:42;;;;;;;3.55;2.63;;;29.20;1.00;;;;;;5112514;28;20176;-45
2022/08/07 08:30:11;;;;;;;2.72;2.53;;;29.10;1.00;;;;;;5113599;28;20024;-45
2022/08/07 08:32:48;;;;;;;2.90;2.55;;;29.10;1.00;;;;;;5110851;28;20030;-46
2022/08/07 08:35:20;;;;;;;2.78;2.63;;;29.30;1.00;;;;;;5113499;28;20020;-45
2022/08/07 08:37:48;;;;;;;4.25;3.20;;;29.30;1.00;;;;;;5114321;28;20165;-48
2022/08/07 08:40:21;;;;;;;3.10;2.72;;;29.20;1.00;;;;;;5113283;28;20032;-47
2022/08/07 08:43:18;;;;;;;3.35;3.15;;;29.20;1.00;;;;;;5087391;28;20446;-47
2022/08/07 08:46:00;;;;;;;2.95;2.72;;;29.20;1.00;;;;;;5111906;28;20067;-47
2022/08/07 08:48:45;;;;;;;3.55;3.35;;;29.30;1.00;;;;;;5113435;28;20035;-49
2022/08/07 08:51:17;;;;;;;4.10;3.40;;;29.20;1.00;;;;;;5113331;28;20164;-47
2022/08/07 08:53:54;;;;;;;2.90;2.67;;;29.30;1.00;;;;;;5114130;28;20035;-45
2022/08/07 08:56:34;;;;;;;3.60;3.28;;;29.20;1.00;;;;;;5112897;28;20496;-44
2022/08/07 08:59:08;;;;;;;4.25;3.20;;;29.30;1.00;;;;;;5113945;28;20035;-46
2022/08/07 09:01:48;;;;;;;;;;;29.20;1.00;;;;;;5113094;28;20110;-45
2022/08/07 09:04:24;;;;;;;3.55;3.25;;;29.20;1.00;;;;;;5113785;28;19977;-44
2022/08/07 09:07:15;;;;;;;4.13;3.65;;;29.20;1.00;;;;;;5112645;28;20035;-47
2022/08/07 09:09:53;;;;;;;5.10;3.90;;;29.30;1.00;;;;;;5113006;28;20148;-45
2022/08/07 09:12:45;;;;;;;4.35;4.00;;;29.20;1.00;;;;;;5109333;28;20027;-46
2022/08/07 09:15:41;;;;;;;9.90;4.57;;;29.20;1.00;;;;;;5112326;28;20161;-45
2022/08/07 09:18:18;;;;;;;4.68;4.32;;;29.10;1.00;;;;;;5105801;28;20114;-45
2022/08/07 09:21:10;;;;;;;4.93;4.53;;;29.10;1.00;;;;;;5098000;28;20085;-45
2022/08/07 09:24:27;;;;;;;4.28;3.88;;;29.10;1.00;;;;;;5067121;28;20150;-45
2022/08/07 09:27:18;;;;;;;4.40;4.00;;;29.20;1.00;;;;;;5026930;28;20078;-46
2022/08/07 09:29:55;;;;;;;7.00;4.30;;;29.30;1.00;;;;;;5017126;28;20021;-45
2022/08/07 09:32:27;;;;;;;5.00;4.47;;;29.30;1.00;;;;;;5095427;28;20489;-45
2022/08/07 09:35:04;;;;;;;5.68;5.18;;;29.20;1.00;;;;;;5112954;28;20020;-44
2022/08/07 09:38:13;;;;;;;6.00;5.40;;;29.30;1.00;;;;;;5112029;28;20042;-46
2022/08/07 09:40:41;;;;;;;4.93;4.63;;;29.20;1.00;;;;;;5075222;28;20438;-47
2022/08/07 09:43:16;;;;;;;4.25;3.95;;;29.30;1.00;;;;;;5100671;28;20086;-45
2022/08/07 09:45:52;;;;;;;5.32;4.93;;;29.40;1.00;;;;;;5110796;28;20030;-45
2022/08/07 09:48:46;;;;;;;7.35;4.53;;;29.30;1.00;;;;;;5112588;28;20024;-45
2022/08/07 09:51:34;;;;;;;4.03;3.83;;;29.40;1.00;;;;;;5111784;28;20019;-49
2022/08/07 09:54:02;;;;;;;4.38;4.07;;;29.60;1.00;;;;;;5080747;28;20076;-45
2022/08/07 09:56:52;;;;;;;5.03;4.53;;;29.70;1.00;;;;;;5111875;28;20019;-46
2022/08/07 09:59:36;;;;;;;5.22;4.72;;;29.60;1.00;;;;;;5100022;28;20027;-46
2022/08/07 10:02:26;;;;;;;5.55;4.10;;;29.60;1.00;;;;;;5111917;28;20032;-47
2022/08/07 10:05:34;;;;;;;6.22;5.30;;;29.60;1.00;;;;;;5109683;28;20042;-46
2022/08/07 10:08:40;;;;;;;5.72;4.20;;;29.40;1.00;;;;;;5111531;28;20028;-51
2022/08/07 10:11:24;;;;;;;4.95;4.45;;;29.50;1.00;;;;;;5098783;28;20087;-45
2022/08/07 10:13:50;;;;;;;;;;;29.40;1.00;;;;;;5111986;28;20040;-44
2022/08/07 10:16:49;;;;;;;5.85;4.45;;;29.50;1.00;;;;;;5111077;28;19968;-45
2022/08/07 10:19:29;;;;;;;8.85;5.00;;;29.60;1.00;;;;;;5102137;28;20046;-44
2022/08/07 10:22:09;;;;;;;4.63;4.22;;;29.60;1.00;;;;;;5110927;28;20074;-45
2022/08/07 10:25:02;;;;;;;6.20;4.10;;;29.60;1.00;;;;;;5112056;28;20023;-45
2022/08/07 10:28:03;;;;;;;4.70;4.28;;;29.70;1.00;;;;;;5105675;28;20031;-45
2022/08/07 10:31:02;;;;;;;5.22;4.80;;;29.80;1.00;;;;;;5112034;28;20488;-45
2022/08/07 10:34:00;;;;;;;4.72;4.00;;;30.00;1.00;;;;;;5107275;28;20038;-45
2022/08/07 10:36:39;;;;;;;3.22;3.03;;;30.20;1.00;;;;;;5059082;28;20030;-45
2022/08/07 10:39:38;;;;;;;3.55;3.33;;;30.20;1.00;;;;;;5112041;28;20061;-46
2022/08/07 10:42:35;;;;;;;3.47;3.20;;;30.30;1.00;;;;;;5106147;28;20162;-46
2022/08/07 10:45:22;;;;;;;6.03;3.08;;;30.20;1.00;;;;;;5106484;28;20066;-48
2022/08/07 10:48:06;;;;;;;3.20;3.00;;;30.40;1.00;;;;;;5100367;28;20028;-50
2022/08/07 10:50:41;;;;;;;3.40;3.20;;;30.40;1.00;;;;;;5111784;28;20473;-45
2022/08/07 10:53:13;;;;;;;3.17;2.42;;;30.50;1.00;;;;;;5106919;28;20012;-45
2022/08/07 10:55:52;;;;;;;4.07;2.65;;;30.60;1.00;;;;;;5111975;28;20028;-46
2022/08/07 10:58:46;;;;;;;3.38;3.08;;;30.70;1.00;;;;;;5111175;28;20012;-45
2022/08/07 11:01:30;;;;;;;2.97;2.78;;;30.80;1.00;;;;;;5111206;28;20036;-46
2022/08/07 11:04:08;;;;;;;2.78;2.53;;;30.90;1.00;;;;;;5099862;28;20107;-46
2022/08/07 11:07:05;;;;;;;4.40;2.85;;;30.80;1.00;;;;;;5110887;28;20061;-45
2022/08/07 11:09:38;;;;;;;3.03;2.83;;;31.00;1.00;;;;;;5083088;28;20039;-46
2022/08/07 11:12:07;;;;;;;;;;;31.20;1.00;;;;;;5110767;28;20388;-45
2022/08/07 11:14:39;;;;;;;3.40;2.65;;;31.20;1.00;;;;;;5111485;28;20329;-45
2022/08/07 11:17:29;;;;;;;2.97;2.78;;;31.40;1.00;;;;;;5110936;28;20028;-46
2022/08/07 11:20:00;;;;;;;2.92;2.70;;;31.60;1.00;;;;;;5111345;28;20035;-45
2022/08/07 11:22:26;;;;;;;3.00;2.80;;;31.60;1.00;;;;;;5110796;28;20020;-46
2022/08/07 11:25:02;;;;;;;3.10;2.90;;;32.00;1.00;;;;;;5110112;28;20038;-48
2022/08/07 11:27:46;;;;;;;2.92;2.72;;;32.20;1.00;;;;;;5110690;28;20030;-45
2022/08/07 11:30:16;;;;;;;;;;;32.20;1.00;;;;;;5112270;28;20038;-46
2022/08/07 11:33:01;;;;;;;3.30;3.00;;;32.40;1.00;;;;;;5108441;28;19981;-46
2022/08/07 11:35:49;;;;;;;3.55;3.25;;;32.80;1.00;;;;;;5111377;28;20040;-47
2022/08/07 11:38:32;;;;;;;3.10;2.75;;;33.00;1.00;;;;;;5102258;28;20435;-46
2022/08/07 11:41:02;;;;;;;3.13;2.88;;;32.90;1.00;;;;;;5109122;28;20051;-45
2022/08/07 11:43:33;;;;;;;3.97;2.78;;;33.00;1.00;;;;;;5110477;28;20044;-46
2022/08/07 11:46:11;;;;;;;3.33;3.13;;;33.20;1.00;;;;;;5111430;28;20108;-45
2022/08/07 11:49:12;;;;;;;3.92;2.80;;;32.70;1.00;;;;;;5111222;28;20037;-47
2022/08/07 11:52:18;;;;;;;3.30;3.05;;;33.00;1.00;;;;;;5102688;28;20414;-45
2022/08/07 11:54:55;;;;;;;3.10;2.72;;;33.10;1.00;;;;;;5114165;28;20016;-49
2022/08/07 11:57:45;;;;;;;3.00;2.80;;;32.90;1.00;;;;;;5113962;28;20031;-45
2022/08/07 12:00:17;;;;;;;6.22;2.95;;;33.00;1.00;;;;;;5102112;28;20126;-45
2022/08/07 12:02:59;;;;;;;2.78;2.58;;;33.70;1.00;;;;;;5113487;28;20209;-46
2022/08/07 12:05:43;;;;;;;2.90;2.70;;;34.20;1.00;;;;;;5114973;28;20032;-45
2022/08/07 12:08:17;;;;;;;4.10;3.80;;;34.30;1.00;;;;;;5113689;28;20130;-45
2022/08/07 12:10:53;;;;;;;2.85;2.65;;;34.30;1.00;;;;;;5114656;28;20080;-45
2022/08/07 12:13:43;;;;;;;3.00;2.80;;;34.00;1.00;;;;;;5113480;28;20092;-46
2022/08/07 12:16:39;;;;;;;3.58;3.10;;;33.90;1.00;;;;;;5114362;28;20023;-45
2022/08/07 12:19:23;;;;;;;3.30;3.00;;;34.10;1.00;;;;;;5113562;28;20024;-46
2022/08/07 12:21:56;;;;;;;4.35;3.42;;;34.10;1.00;;;;;;5114210;28;20509;-47
2022/08/07 12:24:38;;;;;;;2.85;2.72;;;34.10;1.00;;;;;;5113439;28;20019;-45
2022/08/07 12:27:14;;;;;;;3.50;3.00;;;34.40;1.00;;;;;;5095226;28;20519;-47
2022/08/07 12:30:00;;;;;;;3.30;3.10;;;35.40;1.00;;;;;;5106364;28;20768;-45
2022/08/07 12:32:45;;;;;;;3.47;3.17;;;35.10;1.00;;;;;;5111074;28;20059;-45
2022/08/07 12:35:13;;;;;;;3.20;3.00;;;34.80;1.00;;;;;;5113992;28;20485;-46
2022/08/07 12:37:48;;;;;;;3.55;2.88;;;34.50;1.00;;;;;;5112633;28;20051;-46
2022/08/07 12:40:20;;;;;;;4.07;3.80;;;34.70;1.00;;;;;;5114187;28;20043;-46
2022/08/07 12:42:50;;;;;;;3.92;3.47;;;34.70;1.00;;;;;;5108377;28;20089;-46
2022/08/07 12:45:19;;;;;;;3.13;2.92;;;35.80;1.00;;;;;;5105233;28;20024;-45
2022/08/07 12:47:55;;;;;;;3.22;3.03;;;35.30;1.00;;;;;;5112786;28;20030;-45
2022/08/07 12:50:29;;;;;;;3.58;3.30;;;35.30;1.00;;;;;;5113865;28;20024;-46
2022/08/07 12:53:14;;;;;;;3.15;2.97;;;36.30;1.00;;;;;;5113021;28;20084;-45
2022/08/07 12:55:56;;;;;;;3.45;3.25;;;37.60;1.00;;;;;;5113674;28;20028;-43
2022/08/07 12:58:27;;;;;;;3.72;3.42;;;38.40;1.00;;;;;;5101952;28;20027;-46
2022/08/07 13:01:15;;;;;;;4.00;3.65;;;38.20;1.00;;;;;;5113675;28;20085;-45
2022/08/07 13:04:06;;;;;;;4.45;4.10;;;38.50;1.00;;;;;;5105023;28;20065;-46
2022/08/07 13:07:14;;;;;;;4.40;4.10;;;39.40;1.00;;;;;;5112851;28;20031;-45
2022/08/07 13:09:51;;;;;;;4.10;3.80;;;40.90;1.00;;;;;;5112836;28;20053;-45
2022/08/07 13:12:44;;;;;;;5.63;5.30;;;42.90;1.00;;;;;;5101917;28;20043;-45
2022/08/07 13:15:22;;;;;;;5.03;4.77;;;44.10;1.00;;;;;;5113255;28;20020;-48
2022/08/07 13:18:09;;;;;;;4.95;4.63;;;44.90;1.00;;;;;;5099093;28;20291;-45
2022/08/07 13:20:45;;;;;;;4.97;4.72;;;46.80;1.00;;;;;;5094579;28;20032;-45
2022/08/07 13:23:19;;;;;;;5.53;5.13;;;47.20;1.00;;;;;;5112440;28;20028;-45
2022/08/07 13:25:52;;;;;;;5.47;5.05;;;48.10;99.90;;;;;;5094685;28;20023;-44
2022/08/07 13:28:27;;;;;;;5.43;5.00;;;47.60;99.90;;;;;;5112230;28;20449;-44
2022/08/07 13:31:11;;;;;;;5.03;4.78;;;48.20;99.90;;;;;;5113110;28;20034;-45
2022/08/07 13:34:06;;;;;;;5.00;4.70;;;47.80;99.90;;;;;;5112376;28;20024;-45
2022/08/07 13:36:43;;;;;;;5.45;5.05;;;47.80;99.90;;;;;;5112062;28;20062;-46